Latest Coastal Weather Observations for Cape Byron

IDN60701

Issued at 7:45 am EDT Friday 24 October 2014 (issued every 10 minutes, with the page automatically refreshed every 10 minutes)

About coastal observations | Map of coastal stations | Coastal observations for NSW | Marine services | Other Formats
Station Details ID: 058216 Name: CAPE BYRON AWS Lat: -28.64 Lon: 153.64 Height: 95.0 m
Data from the previous 72 hours. | See also: Recent months at Cape Byron
Date/Time
EDT
Temp

°C
Wind Pressure Rain
since 9am
mm
Weather Cloud Vis
km
Sea
Height
m
Swell
Dir
 
Speed
knots
Gust
knots
hPa Trend Height
m
Period
s
Dir
24/07:30am 19.3 N 10 13 1022.1 - 0.0 - - - - - - -
24/07:00am 18.9 N 9 14 1021.8 - 0.0 - - - - - - -
24/06:30am 18.7 N 8 12 1021.5 - 0.0 - - - - - - -
24/06:00am 18.7 N 11 15 1021.1 - 0.0 - - - - - - -
24/05:30am 18.6 N 10 15 1020.8 - 0.0 - - - - - - -
24/05:00am 18.7 N 9 13 1020.6 - 0.0 - - - - - - -
24/04:30am 18.8 N 11 15 1020.4 - 0.0 - - - - - - -
24/04:00am 18.9 N 10 15 1020.3 - 0.0 - - - - - - -
24/03:30am 18.9 N 9 13 1020.5 - 0.0 - - - - - - -
24/03:00am 18.9 N 10 14 1020.3 - 0.0 - - - - - - -
24/02:30am 18.9 N 10 14 1020.5 - 0.0 - - - - - - -
24/02:00am 19.1 N 9 12 1020.9 - 0.0 - - - - - - -
24/01:30am 19.8 N 13 19 1020.9 - 0.0 - - - - - - -
24/01:00am 19.8 N 15 21 1021.0 - 0.0 - - - - - - -
24/12:30am 19.9 N 15 20 1021.2 - 0.0 - - - - - - -
24/12:00am 20.0 N 14 18 1021.4 - 0.0 - - - - - - -
 
Date/Time
EDT
Temp

°C
Wind Pressure Rain
since 9am
mm
Weather Cloud Vis
km
Sea
Height
m
Swell
Dir
 
Speed
knots
Gust
knots
hPa Trend Height
m
Period
s
Dir
23/11:30pm 20.0 N 14 19 1021.3 - 0.0 - - - - - - -
23/11:00pm 20.1 N 14 19 1021.3 - 0.0 - - - - - - -
23/10:30pm 20.1 N 14 19 1021.2 - 0.0 - - - - - - -
23/10:00pm 20.2 NNE 14 19 1021.1 - 0.0 - - - - - - -
23/09:30pm 20.2 N 13 17 1021.0 - 0.0 - - - - - - -
23/09:00pm 20.2 N 14 19 1020.6 - 0.0 - - - - - - -
23/08:30pm 20.2 N 13 18 1020.3 - 0.0 - - - - - - -
23/08:00pm 20.2 N 13 19 1020.2 - 0.0 - - - - - - -
23/07:30pm 20.3 N 12 17 1019.7 - 0.0 - - - - - - -
23/07:00pm 20.3 N 13 18 1019.4 - 0.0 - - - - - - -
23/06:30pm 20.4 NNE 14 19 1019.0 - 0.0 - - - - - - -
23/06:00pm 20.6 NNE 13 19 1018.8 - 0.0 - - - - - - -
23/05:30pm 20.9 NNE 13 20 1018.5 - 0.0 - - - - - - -
23/05:00pm 21.1 NNE 13 18 1018.1 - 0.0 - - - - - - -
23/04:30pm 21.2 NNE 14 21 1017.9 - 0.0 - - - - - - -
23/04:00pm 21.6 NNE 15 21 1017.7 - 0.0 - - - - - - -
23/03:30pm 21.6 NNE 14 18 1017.8 - 0.0 - - - - - - -
23/03:00pm 21.8 NNE 13 18 1018.0 - 0.0 - - - - - - -
23/02:30pm 22.0 NNE 13 17 1018.4 - 0.0 - - - - - - -
23/02:00pm 22.0 NNE 13 17 1018.9 - 0.0 - - - - - - -
23/01:30pm 22.2 NNE 12 19 1019.3 - 0.0 - - - - - - -
23/01:00pm 22.2 NNE 11 16 1019.8 - 0.0 - - - - - - -
23/12:30pm 22.3 NNE 13 19 1020.3 - 0.0 - - - - - - -
23/12:00pm 22.2 NNE 12 19 1020.7 - 0.0 - - - - - - -
23/11:30am 22.0 NNE 11 15 1021.2 - 0.0 - - - - - - -
23/11:00am 21.5 NNE 10 13 1021.6 - 0.0 - - - - - - -
23/10:30am 21.4 N 9 14 1021.9 - 0.0 - - - - - - -
23/10:00am 21.2 N 10 13 1022.0 - 0.0 - - - - - - -
23/09:30am 20.8 N 8 11 1022.3 - 0.0 - - - - - - -
23/09:00am 19.9 N 7 10 1022.4 - 0.0 - - - - - - -
23/08:30am 19.2 N 5 7 1022.6 - 0.0 - - - - - - -
23/08:00am 17.2 N 5 6 1022.4 - 0.0 - - - - - - -
23/07:30am 16.1 N 4 8 1022.3 - 0.0 - - - - - - -
23/07:00am 15.2 WNW 5 9 1022.0 - 0.0 - - - - - - -
23/06:30am 14.9 NW 5 7 1021.8 - 0.0 - - - - - - -
23/06:00am 14.7 WNW 6 10 1021.5 - 0.0 - - - - - - -
23/05:30am 15.0 NW 7 9 1021.4 - 0.0 - - - - - - -
23/05:00am 15.8 NW 5 7 1021.4 - 0.0 - - - - - - -
23/04:30am 16.0 NW 4 8 1021.3 - 0.0 - - - - - - -
23/04:00am 15.9 WNW 6 8 1021.4 - 0.0 - - - - - - -
23/03:30am 15.8 WNW 6 8 1021.6 - 0.0 - - - - - - -
23/03:00am 15.5 WNW 8 9 1021.8 - 0.0 - - - - - - -
23/02:30am 16.0 NW 6 7 1022.0 - 0.0 - - - - - - -
23/02:00am 16.5 NNW 5 6 1022.3 - 0.0 - - - - - - -
23/01:30am 16.8 NNW 5 6 1022.5 - 0.0 - - - - - - -
23/01:00am 17.1 N 5 8 1022.8 - 0.0 - - - - - - -
23/12:30am 17.3 NE 7 11 1023.1 - 0.0 - - - - - - -
23/12:00am 17.3 ENE 8 11 1023.3 - 0.0 - - - - - - -
 
Date/Time
EDT
Temp

°C
Wind Pressure Rain
since 9am
mm
Weather Cloud Vis
km
Sea
Height
m
Swell
Dir
 
Speed
knots
Gust
knots
hPa Trend Height
m
Period
s
Dir
22/11:30pm 17.2 E 6 10 1023.4 - 0.0 - - - - - - -
22/11:00pm 17.3 E 7 11 1023.4 - 0.0 - - - - - - -
22/10:30pm 17.5 ESE 5 9 1023.5 - 0.0 - - - - - - -
22/10:00pm 17.5 SE 5 8 1023.7 - 0.0 - - - - - - -
22/09:30pm 17.4 ESE 5 8 1023.8 - 0.0 - - - - - - -
22/09:00pm 17.8 E 7 10 1023.6 - 0.0 - - - - - - -
22/08:30pm 17.9 E 8 11 1023.6 - 0.0 - - - - - - -
22/08:00pm 17.9 E 8 12 1023.7 - 0.0 - - - - - - -
22/07:30pm 18.0 E 9 12 1023.6 - 0.0 - - - - - - -
22/07:00pm 18.4 NE 10 13 1023.3 - 0.0 - - - - - - -
22/06:30pm 19.6 ENE 12 15 1023.3 - 0.0 - - - - - - -
22/06:00pm 19.8 ESE 12 15 1023.3 - 0.0 - - - - - - -
22/05:30pm 19.7 ENE 13 17 1023.2 - 0.0 - - - - - - -
22/05:00pm 20.8 NE 13 16 1023.1 - 0.0 - - - - - - -
22/04:30pm 21.0 NE 12 17 1023.1 - 0.0 - - - - - - -
22/04:00pm 20.8 E 13 17 1023.1 - 0.0 - - - - - - -
22/03:30pm 20.8 SE 9 14 1023.4 - 0.0 - - - - - - -
22/03:00pm 20.3 SE 12 16 1023.8 - 0.0 - - - - - - -
22/02:30pm 20.8 SSE 12 17 1024.0 - 0.0 - - - - - - -
22/02:00pm 20.4 S 13 16 1024.4 - 0.0 - - - - - - -
22/01:30pm 20.3 S 12 16 1024.8 - 0.0 - - - - - - -
22/01:00pm 20.3 S 12 16 1025.1 - 0.0 - - - - - - -
22/12:30pm 19.3 S 12 13 1025.5 - 0.0 - - - - - - -
22/12:00pm 18.9 S 14 17 1025.9 - 0.0 - - - - - - -
22/11:30am 19.5 SE 12 17 1026.2 - 0.0 - - - - - - -
22/11:00am 18.2 S 17 21 1026.4 - 0.0 - - - - - - -
22/10:30am 17.5 SW 13 18 1026.5 - 0.0 - - - - - - -
22/10:17am 17.5 SSW 15 20 1026.5 - 0.0 - - - - - - -
22/10:00am 17.3 WSW 7 9 1026.5 - 0.0 - - - - - - -
22/09:30am 16.1 WSW 8 13 1026.2 - 0.0 - - - - - - -
22/09:00am 15.8 WSW 11 15 1026.2 - 5.6 - - - - - - -
22/08:30am 15.2 WSW 13 16 1026.0 - 5.6 - - - - - - -
22/08:00am 14.9 WSW 11 14 1025.6 - 5.6 - - - - - - -
22/07:30am 14.6 WSW 10 13 1025.6 - 5.6 - - - - - - -
22/07:00am 14.2 WSW 10 13 1025.4 - 5.6 - - - - - - -
22/06:30am 14.2 SW 11 13 1025.4 - 5.6 - - - - - - -
22/06:00am 14.2 SW 10 12 1025.3 - 5.6 - - - - - - -
22/05:30am 14.4 SW 11 13 1025.2 - 5.6 - - - - - - -
22/05:00am 14.5 SW 11 14 1025.3 - 5.6 - - - - - - -
22/04:30am 14.7 SW 11 14 1025.2 - 5.4 - - - - - - -
22/04:00am 14.7 SW 11 13 1025.4 - 5.4 - - - - - - -
22/03:30am 14.9 SW 12 16 1025.6 - 5.4 - - - - - - -
22/03:00am 15.2 WSW 12 15 1025.8 - 4.0 Recent precip. - - - - - -
22/02:30am 15.5 SW 8 11 1025.9 - 4.0 - - - - - - -
22/02:00am 15.6 SW 11 19 1026.4 - 3.8 - - - - - - -
22/01:30am 16.6 SE 14 20 1026.8 - 3.8 - - - - - - -
22/01:00am 15.7 SE 17 23 1027.0 - 3.8 - - - - - - -
22/12:30am 15.6 SW 12 16 1027.6 - 2.4 - - - - - - -
22/12:00am 16.0 S 9 11 1028.1 - 2.2 Rain - - - - - -
 
Date/Time
EDT
Temp

°C
Wind Pressure Rain
since 9am
mm
Weather Cloud Vis
km
Sea
Height
m
Swell
Dir
 
Speed
knots
Gust
knots
hPa Trend Height
m
Period
s
Dir
21/11:30pm 16.0 SW 12 15 1028.2 - 0.8 - - - - - - -
21/11:00pm 16.1 SSW 19 25 1028.4 - 0.8 - - - - - - -
21/10:30pm 17.4 S 17 21 1028.6 - 0.8 - - - - - - -
21/10:00pm 16.9 S 17 21 1028.4 - 0.8 - - - - - - -
21/09:30pm 16.8 SW 11 16 1028.2 - 0.8 - - - - - - -
21/09:00pm 18.2 SE 17 24 1028.1 - 0.8 - - - - - - -
21/08:30pm 18.1 SE 17 24 1027.6 - 0.8 - - - - - - -
21/08:26pm 18.3 SSE 15 23 1027.8 - 0.8 - - - - - - -
21/08:00pm 16.7 S 20 26 1027.8 - 0.8 - - - - - - -
21/07:52pm 16.7 S 23 26 1027.8 - 0.8 - - - - - - -
21/07:41pm 17.9 SSE 22 27 1027.6 - 0.8 - - - - - - -
21/07:30pm 18.2 SSW 23 29 1027.4 - 0.8 - - - - - - -
21/07:00pm 17.3 SSW 16 23 1027.1 - 0.8 - - - - - - -
21/06:30pm 18.2 SSE 17 23 1027.0 - 0.6 - - - - - - -
21/06:20pm 18.5 SSE 18 23 1027.0 - 0.6 - - - - - - -
21/06:00pm 18.4 S 23 27 1026.7 - 0.6 - - - - - - -
21/05:30pm 18.7 S 26 31 1026.6 - 0.6 - - - - - - -
21/05:00pm 18.4 S 20 26 1026.6 - 0.6 - - - - - - -
21/04:30pm 18.9 S 27 34 1026.6 - 0.6 - - - - - - -
21/04:00pm 19.5 SSW 25 31 1026.5 - 0.6 - - - - - - -
21/03:30pm 19.2 SSW 24 29 1026.6 - 0.6 - - - - - - -
21/03:00pm 20.0 S 24 28 1026.7 - 0.6 - - - - - - -
21/02:30pm 19.5 S 23 27 1027.0 - 0.6 - - - - - - -
21/02:00pm 18.6 SSW 25 28 1027.2 - 0.6 - - - - - - -
21/01:30pm 17.2 SSW 20 28 1027.6 - 0.4 - - - - - - -
21/01:00pm 17.4 SSW 14 19 1028.0 - 0.4 - - - - - - -
21/12:30pm 18.0 SW 16 22 1028.1 - 0.0 - - - - - - -
21/12:00pm 17.8 SSW 23 30 1028.1 - 0.0 - - - - - - -
21/11:30am 19.7 SW 15 21 1028.2 - 0.0 - - - - - - -
21/11:00am 18.3 SW 17 22 1028.4 - 0.0 - - - - - - -
21/10:30am 19.0 SW 17 27 1028.4 - 0.0 - - - - - - -
21/10:24am 19.2 SSW 17 27 1028.4 - 0.0 - - - - - - -
21/10:00am 19.5 SSW 19 26 1028.5 - 0.0 - - - - - - -
21/09:30am 19.6 S 21 25 1028.4 - 0.0 - - - - - - -
21/09:00am 19.8 S 24 27 1028.0 - 3.0 - - - - - - -
21/08:30am 19.8 S 23 27 1027.6 - 3.0 - - - - - - -
21/08:00am 19.8 S 24 29 1027.3 - 3.0 - - - - - - -

Other Formats:

Comma delimited format used in spreadsheet applications
http://www.bom.gov.au/fwo/IDN60701/IDN60701.94599.axf

JavaScript Object Notation format (JSON) in row-major order
http://www.bom.gov.au/fwo/IDN60701/IDN60701.94599.json